createdAt,value
2022-11-26T00:02:21.023Z,95504.94
2022-11-26T00:04:48.514Z,95490.41
2022-11-26T00:07:22.240Z,95493.94
2022-11-26T00:09:50.332Z,95485.97
2022-11-26T00:12:22.233Z,95513.47
2022-11-26T00:14:49.041Z,95496.53
2022-11-26T00:17:17.234Z,95514.09
2022-11-26T00:19:45.634Z,95527.06
2022-11-26T00:22:38.145Z,95530.59
2022-11-26T00:25:05.421Z,95516.25
2022-11-26T00:27:32.202Z,95525.22
2022-11-26T00:29:58.928Z,95520.41
2022-11-26T00:32:26.466Z,95527.28
2022-11-26T00:34:53.828Z,95524.75
2022-11-26T00:37:26.272Z,95525.59
2022-11-26T00:39:53.354Z,95521.78
2022-11-26T00:42:20.543Z,95499.28
2022-11-26T00:44:47.482Z,95509.44
2022-11-26T00:47:14.429Z,95521.13
2022-11-26T00:49:41.152Z,95520.22
2022-11-26T00:52:34.995Z,95519.56
2022-11-26T00:55:16.530Z,95522.25
2022-11-26T00:57:43.684Z,95509.28
2022-11-26T01:00:26.565Z,95526.25
2022-11-26T01:02:53.661Z,95523.66
2022-11-26T01:05:23.315Z,95534.75
2022-11-26T01:07:52.369Z,95543.50
2022-11-26T01:10:29.195Z,95531.09
2022-11-26T01:12:56.651Z,95548.81
2022-11-26T01:15:26.249Z,95557.03
2022-11-26T01:17:53.599Z,95556.44
2022-11-26T01:20:28.395Z,95562.63
2022-11-26T01:22:57.356Z,95558.47
2022-11-26T01:25:26.927Z,95554.28
2022-11-26T01:27:54.035Z,95553.47
2022-11-26T01:30:25.880Z,95564.06
2022-11-26T01:32:52.925Z,95577.41
2022-11-26T01:35:21.772Z,95570.34
2022-11-26T01:37:49.716Z,95585.59
2022-11-26T01:40:53.064Z,95588.19
2022-11-26T01:43:28.077Z,95582.19
2022-11-26T01:45:56.492Z,95598.78
2022-11-26T01:48:33.621Z,95597.03
2022-11-26T01:51:03.197Z,95598.69
2022-11-26T01:53:44.449Z,95597.94
2022-11-26T01:56:33.165Z,95602.75
2022-11-26T01:59:26.189Z,95602.59
2022-11-26T02:01:55.644Z,95590.00
2022-11-26T02:04:36.284Z,95606.97
2022-11-26T02:07:03.967Z,95603.69
2022-11-26T02:09:31.564Z,95610.53
2022-11-26T02:11:58.397Z,95613.88
2022-11-26T02:14:44.000Z,95610.38
2022-11-26T02:17:26.816Z,95617.78
2022-11-26T02:20:15.154Z,95620.09
2022-11-26T02:22:50.555Z,95629.28
2022-11-26T02:25:26.268Z,95630.03
2022-11-26T02:28:42.310Z,95622.09
2022-11-26T02:31:25.524Z,95628.03
2022-11-26T02:34:14.907Z,95622.94
2022-11-26T02:37:04.214Z,95627.75
2022-11-26T02:39:31.130Z,95599.19
2022-11-26T02:42:02.417Z,95627.59
2022-11-26T02:44:38.208Z,95610.63
2022-11-26T02:47:14.326Z,95628.88
2022-11-26T02:49:42.980Z,95634.06
2022-11-26T02:52:11.648Z,95646.78
2022-11-26T02:54:40.261Z,95638.69
2022-11-26T02:57:12.965Z,95654.81
2022-11-26T02:59:40.388Z,95643.16
2022-11-26T03:02:16.592Z,95658.44
2022-11-26T03:04:49.405Z,95662.78
2022-11-26T03:07:16.472Z,95654.50
2022-11-26T03:09:59.594Z,95657.22
2022-11-26T03:12:27.184Z,95659.69
2022-11-26T03:14:53.927Z,95658.03
2022-11-26T03:17:21.155Z,95659.06
2022-11-26T03:19:48.046Z,95669.06
2022-11-26T03:22:15.652Z,95664.88
2022-11-26T03:24:42.888Z,95664.31
2022-11-26T03:27:09.673Z,95665.25
2022-11-26T03:29:36.417Z,95657.06
2022-11-26T03:32:03.622Z,95667.28
2022-11-26T03:34:30.484Z,95665.78
2022-11-26T03:36:57.223Z,95674.31
2022-11-26T03:39:24.031Z,95684.69
2022-11-26T03:41:50.797Z,95665.41
2022-11-26T03:44:17.595Z,95664.44
2022-11-26T03:46:44.328Z,95668.91
2022-11-26T03:49:11.074Z,95679.66
2022-11-26T03:51:37.820Z,95675.56
2022-11-26T03:54:04.751Z,95674.06
2022-11-26T03:56:31.462Z,95673.50
2022-11-26T03:58:58.525Z,95685.38
2022-11-26T04:01:25.806Z,95695.84
2022-11-26T04:03:52.657Z,95690.25
2022-11-26T04:06:19.415Z,95694.84
2022-11-26T04:08:46.176Z,95706.16
2022-11-26T04:11:14.192Z,95701.28
2022-11-26T04:13:40.920Z,95697.94
2022-11-26T04:16:08.179Z,95701.94
2022-11-26T04:18:35.086Z,95691.19
2022-11-26T04:21:02.057Z,95692.13
2022-11-26T04:23:28.843Z,95694.59
2022-11-26T04:25:55.561Z,95690.44
2022-11-26T04:28:22.330Z,95698.13
2022-11-26T04:30:49.061Z,95701.94
2022-11-26T04:33:15.876Z,95684.41
2022-11-26T04:35:42.771Z,95692.69
2022-11-26T04:38:09.810Z,95700.09
2022-11-26T04:40:36.655Z,95695.25
2022-11-26T04:43:03.674Z,95700.28
2022-11-26T04:45:30.639Z,95698.44
2022-11-26T04:47:57.416Z,95697.50
2022-11-26T04:50:24.483Z,95702.34
2022-11-26T04:52:51.316Z,95679.56
2022-11-26T04:55:18.760Z,95697.16
2022-11-26T04:57:48.779Z,95698.50
2022-11-26T05:00:18.059Z,95712.22
2022-11-26T05:02:45.539Z,95714.06
2022-11-26T05:05:13.185Z,95709.03
2022-11-26T05:07:40.568Z,95714.31
2022-11-26T05:10:08.948Z,95721.25
2022-11-26T05:12:36.406Z,95719.00
2022-11-26T05:15:04.904Z,95726.03
2022-11-26T05:17:32.324Z,95727.88
2022-11-26T05:19:59.060Z,95713.00
2022-11-26T05:22:25.924Z,95732.38
2022-11-26T05:24:52.679Z,95729.22
2022-11-26T05:27:19.464Z,95731.06
2022-11-26T05:29:46.259Z,95721.94
2022-11-26T05:32:13.092Z,95734.88
2022-11-26T05:34:40.170Z,95715.66
2022-11-26T05:37:07.151Z,95716.75
2022-11-26T05:39:33.953Z,95738.00
2022-11-26T05:42:04.841Z,95743.59
2022-11-26T05:44:34.545Z,95722.59
2022-11-26T05:47:01.359Z,95744.56
2022-11-26T05:49:28.098Z,95732.19
2022-11-26T05:51:54.881Z,95746.84
2022-11-26T05:54:21.629Z,95754.59
2022-11-26T05:56:48.405Z,95748.81
2022-11-26T05:59:15.110Z,95760.84
2022-11-26T06:01:41.848Z,95757.66
2022-11-26T06:04:08.627Z,95759.50
2022-11-26T06:06:35.356Z,95748.72
2022-11-26T06:09:03.238Z,95753.88
2022-11-26T06:11:30.088Z,95751.22
2022-11-26T06:13:56.837Z,95765.75
2022-11-26T06:16:23.589Z,95767.34
2022-11-26T06:18:50.499Z,95766.06
2022-11-26T06:21:17.220Z,95758.38
2022-11-26T06:23:52.835Z,95774.44
2022-11-26T06:26:21.218Z,95781.13
2022-11-26T06:28:47.982Z,95766.84
2022-11-26T06:31:14.778Z,95786.91
2022-11-26T06:33:41.596Z,95771.63
2022-11-26T06:36:09.458Z,95772.44
2022-11-26T06:38:36.265Z,95767.41
2022-11-26T06:41:06.704Z,95767.41
2022-11-26T06:43:33.986Z,95777.31
2022-11-26T06:46:06.633Z,95781.31
2022-11-26T06:48:38.003Z,95780.66
2022-11-26T06:51:07.577Z,95793.19
2022-11-26T06:53:34.362Z,95791.63
2022-11-26T06:56:02.731Z,95799.53
2022-11-26T06:58:29.629Z,95802.72
2022-11-26T07:00:57.274Z,95787.72
2022-11-26T07:03:28.092Z,95771.75
2022-11-26T07:05:58.786Z,95793.53
2022-11-26T07:08:25.703Z,95790.84
2022-11-26T07:10:52.539Z,95794.34
2022-11-26T07:13:19.301Z,95810.94
2022-11-26T07:15:46.177Z,95810.56
2022-11-26T07:18:13.009Z,95825.56
2022-11-26T07:20:39.832Z,95828.25
2022-11-26T07:23:06.565Z,95829.09
2022-11-26T07:25:33.276Z,95840.66
2022-11-26T07:28:00.008Z,95844.66
2022-11-26T07:30:26.825Z,95837.81
2022-11-26T07:32:53.608Z,95851.13
2022-11-26T07:35:20.374Z,95834.66
2022-11-26T07:37:47.158Z,95834.41
2022-11-26T07:40:14.305Z,95845.91
2022-11-26T07:42:41.045Z,95855.25
2022-11-26T07:45:08.654Z,95863.38
2022-11-26T07:47:35.599Z,95865.06
2022-11-26T07:50:03.409Z,95877.50
2022-11-26T07:52:30.221Z,95867.31
2022-11-26T07:54:57.147Z,95877.22
2022-11-26T07:57:25.351Z,95862.97
2022-11-26T07:59:52.204Z,95858.47
2022-11-26T08:02:19.165Z,95861.06
2022-11-26T08:04:46.098Z,95833.28
2022-11-26T08:07:18.098Z,95868.94
2022-11-26T08:09:49.878Z,95870.34
2022-11-26T08:12:16.622Z,95862.84
2022-11-26T08:14:43.341Z,95872.03
2022-11-26T08:17:10.077Z,95881.56
2022-11-26T08:19:36.793Z,95874.53
2022-11-26T08:22:03.604Z,95853.97
2022-11-26T08:24:31.333Z,95864.69
2022-11-26T08:27:00.731Z,95869.25
2022-11-26T08:29:27.757Z,95870.78
2022-11-26T08:31:54.558Z,95884.75
2022-11-26T08:34:21.412Z,95884.22
2022-11-26T08:36:48.164Z,95851.28
2022-11-26T08:39:17.680Z,95877.59
2022-11-26T08:41:50.600Z,95873.91
2022-11-26T08:44:19.683Z,95880.34
2022-11-26T08:46:46.490Z,95883.19
2022-11-26T08:49:15.128Z,95893.22
2022-11-26T08:51:42.506Z,95894.06
2022-11-26T08:54:09.952Z,95894.72
2022-11-26T08:56:37.125Z,95899.56
2022-11-26T08:59:04.276Z,95899.97
2022-11-26T09:01:33.735Z,95898.13
2022-11-26T09:04:02.224Z,95898.88
2022-11-26T09:06:31.455Z,95881.41
2022-11-26T09:09:15.539Z,95888.84
2022-11-26T09:11:57.880Z,95910.94
2022-11-26T09:14:29.727Z,95902.78
2022-11-26T09:16:58.166Z,95887.38
2022-11-26T09:19:25.639Z,95892.97
2022-11-26T09:21:52.407Z,95898.72
2022-11-26T09:24:20.166Z,95907.00
2022-11-26T09:26:48.503Z,95889.56
2022-11-26T09:29:19.828Z,95898.69
2022-11-26T09:32:21.240Z,95889.19
2022-11-26T09:34:34.189Z,95895.88
2022-11-26T09:37:01.005Z,95891.91
2022-11-26T09:39:28.410Z,95886.53
2022-11-26T09:42:04.903Z,95896.38
2022-11-26T09:44:54.509Z,95902.91
2022-11-26T09:47:33.673Z,95894.00
2022-11-26T09:50:06.294Z,95907.25
2022-11-26T09:53:02.758Z,95893.94
2022-11-26T09:55:38.933Z,95898.94
2022-11-26T09:58:39.275Z,95905.59
2022-11-26T10:01:07.928Z,95884.41
2022-11-26T10:03:37.462Z,95878.00
2022-11-26T10:06:38.663Z,95899.75
2022-11-26T10:09:29.712Z,95889.38
2022-11-26T10:12:31.421Z,95893.16
2022-11-26T10:15:38.638Z,95878.75
2022-11-26T10:18:40.025Z,95887.75
2022-11-26T10:21:38.064Z,95886.47
2022-11-26T10:24:28.901Z,95890.25
2022-11-26T10:26:58.797Z,95878.13
2022-11-26T10:29:42.610Z,95882.06
2022-11-26T10:32:25.687Z,95883.72
2022-11-26T10:34:55.083Z,95871.69
2022-11-26T10:37:25.586Z,95879.88
2022-11-26T10:40:15.406Z,95875.22
2022-11-26T10:42:45.088Z,95885.50
2022-11-26T10:45:22.082Z,95873.31
2022-11-26T10:47:48.926Z,95865.41
2022-11-26T10:53:22.410Z,95868.19
2022-11-26T10:55:51.403Z,95862.03
2022-11-26T10:58:26.255Z,95861.94
2022-11-26T11:01:00.313Z,95852.38
2022-11-26T11:06:43.990Z,95847.72
2022-11-26T11:09:36.709Z,95851.47
2022-11-26T11:12:19.329Z,95845.16
2022-11-26T11:14:47.584Z,95847.06
2022-11-26T11:17:37.274Z,95852.88
2022-11-26T11:20:38.184Z,95852.88
2022-11-26T11:23:18.715Z,95855.53
2022-11-26T11:25:58.415Z,95858.03
2022-11-26T11:28:29.041Z,95850.66
2022-11-26T11:31:13.449Z,95850.06
2022-11-26T11:33:40.835Z,95837.50
2022-11-26T11:36:29.218Z,95843.91
2022-11-26T11:39:00.294Z,95834.41
2022-11-26T11:41:42.507Z,95837.91
2022-11-26T11:44:26.984Z,95825.16
2022-11-26T11:47:38.218Z,95834.59
2022-11-26T11:50:32.480Z,95827.81
2022-11-26T11:53:17.352Z,95821.97
2022-11-26T11:56:14.548Z,95816.63
2022-11-26T11:59:05.517Z,95827.75
2022-11-26T12:02:04.202Z,95822.94
2022-11-26T12:05:08.417Z,95821.88
2022-11-26T12:07:40.178Z,95820.56
2022-11-26T12:10:15.302Z,95821.28
2022-11-26T12:13:03.297Z,95802.75
2022-11-26T12:16:05.843Z,95815.06
2022-11-26T12:18:49.551Z,95805.84
2022-11-26T12:21:21.925Z,95807.94
2022-11-26T12:24:09.307Z,95803.69
2022-11-26T12:26:47.102Z,95797.03
2022-11-26T12:30:12.389Z,95803.94
2022-11-26T12:33:01.863Z,95796.72
2022-11-26T12:35:36.794Z,95771.53
2022-11-26T12:38:21.356Z,95802.50
2022-11-26T12:41:00.902Z,95794.16
2022-11-26T12:43:47.986Z,95799.38
2022-11-26T12:46:27.221Z,95809.28
2022-11-26T12:49:22.367Z,95805.69
2022-11-26T12:52:14.568Z,95811.50
2022-11-26T12:55:04.429Z,95815.97
2022-11-26T12:57:39.950Z,95807.66
2022-11-26T13:00:15.166Z,95818.38
2022-11-26T13:02:49.540Z,95820.03
2022-11-26T13:05:22.402Z,95818.34
2022-11-26T13:08:11.580Z,95807.53
2022-11-26T13:11:28.702Z,95809.38
2022-11-26T13:14:03.898Z,95801.38
2022-11-26T13:16:52.843Z,95787.06
2022-11-26T13:19:27.071Z,95776.22
2022-11-26T13:22:29.695Z,95772.19
2022-11-26T13:25:05.465Z,95782.00
2022-11-26T13:28:18.720Z,95782.34
2022-11-26T13:31:23.347Z,95792.94
2022-11-26T13:34:19.121Z,95781.69
2022-11-26T13:37:04.005Z,95786.97
2022-11-26T13:39:52.885Z,95781.22
2022-11-26T13:42:50.402Z,95790.91
2022-11-26T13:45:39.001Z,95793.41
2022-11-26T13:48:28.016Z,95794.81
2022-11-26T13:51:25.156Z,95800.97
2022-11-26T13:54:04.325Z,95803.59
2022-11-26T13:56:33.009Z,95777.81
2022-11-26T13:59:16.446Z,95788.00
2022-11-26T14:01:43.671Z,95786.50
2022-11-26T14:04:47.694Z,95796.84
2022-11-26T14:07:14.527Z,95808.50
2022-11-26T14:09:46.711Z,95802.78
2022-11-26T14:12:15.557Z,95800.84
2022-11-26T14:14:44.273Z,95802.72
2022-11-26T14:17:14.356Z,95808.69
2022-11-26T14:19:40.978Z,95813.03
2022-11-26T14:22:20.262Z,95815.00
2022-11-26T14:24:50.155Z,95818.34
2022-11-26T14:27:26.285Z,95820.56
2022-11-26T14:30:00.404Z,95822.47
2022-11-26T14:32:31.258Z,95823.47
2022-11-26T14:34:58.656Z,95814.19
2022-11-26T14:37:31.261Z,95819.19
2022-11-26T14:40:08.149Z,95812.09
2022-11-26T14:42:35.073Z,95790.91
2022-11-26T14:45:19.118Z,95794.94
2022-11-26T14:47:50.357Z,95815.03
2022-11-26T14:50:21.698Z,95816.00
2022-11-26T14:52:57.813Z,95817.50
2022-11-26T14:55:28.985Z,95807.75
2022-11-26T14:58:14.760Z,95807.38
2022-11-26T15:00:41.694Z,95808.91
2022-11-26T15:03:25.158Z,95802.47
2022-11-26T15:05:51.990Z,95795.91
2022-11-26T15:08:20.669Z,95816.56
2022-11-26T15:10:52.184Z,95789.53
2022-11-26T15:13:28.669Z,95809.38
2022-11-26T15:16:02.016Z,95794.72
2022-11-26T15:18:32.773Z,95806.00
2022-11-26T15:21:01.658Z,95806.97
2022-11-26T15:23:37.045Z,95809.44
2022-11-26T15:26:04.575Z,95792.88
2022-11-26T15:28:38.739Z,95795.41
2022-11-26T15:31:08.603Z,95807.13
2022-11-26T15:33:37.989Z,95809.09
2022-11-26T15:36:09.522Z,95797.88
2022-11-26T15:39:03.184Z,95816.38
2022-11-26T15:41:30.725Z,95799.28
2022-11-26T15:43:59.912Z,95801.41
2022-11-26T15:46:35.116Z,95794.94
2022-11-26T15:49:08.211Z,95798.28
2022-11-26T15:51:59.440Z,95802.44
2022-11-26T15:54:56.596Z,95802.84
2022-11-26T15:57:30.396Z,95811.41
2022-11-26T16:00:05.127Z,95800.13
2022-11-26T16:02:32.457Z,95807.44
2022-11-26T16:05:03.659Z,95801.75
2022-11-26T16:07:33.111Z,95813.31
2022-11-26T16:10:25.987Z,95807.06
2022-11-26T16:13:19.373Z,95817.78
2022-11-26T16:15:51.608Z,95811.25
2022-11-26T16:18:24.118Z,95810.81
2022-11-26T16:21:01.505Z,95817.97
2022-11-26T16:23:30.235Z,95814.75
2022-11-26T16:26:26.907Z,95813.84
2022-11-26T16:28:53.942Z,95815.38
2022-11-26T16:31:21.646Z,95820.66
2022-11-26T16:33:48.483Z,95816.16
2022-11-26T16:36:27.074Z,95834.16
2022-11-26T16:38:54.053Z,95809.66
2022-11-26T16:41:22.914Z,95823.41
2022-11-26T16:43:50.317Z,95828.78
2022-11-26T16:46:20.975Z,95821.94
2022-11-26T16:48:48.253Z,95827.50
2022-11-26T16:51:15.172Z,95817.84
2022-11-26T16:53:42.465Z,95828.53
2022-11-26T16:56:27.537Z,95823.78
2022-11-26T16:58:58.106Z,95828.69
2022-11-26T17:01:24.986Z,95820.72
2022-11-26T17:03:51.834Z,95840.47
2022-11-26T17:06:39.127Z,95831.38
2022-11-26T17:09:05.867Z,95823.94
2022-11-26T17:11:32.605Z,95804.72
2022-11-26T17:13:59.326Z,95821.78
2022-11-26T17:16:26.395Z,95816.94
2022-11-26T17:18:53.337Z,95812.97
2022-11-26T17:21:20.111Z,95790.66
2022-11-26T17:23:46.884Z,95816.09
2022-11-26T17:26:22.478Z,95820.53
2022-11-26T17:28:50.376Z,95820.03
2022-11-26T17:31:18.233Z,95805.09
2022-11-26T17:33:45.106Z,95823.28
2022-11-26T17:36:21.420Z,95801.06
2022-11-26T17:38:49.498Z,95819.13
2022-11-26T17:41:16.687Z,95816.88
2022-11-26T17:43:44.010Z,95822.81
2022-11-26T17:46:21.447Z,95811.09
2022-11-26T17:48:51.448Z,95812.94
2022-11-26T17:51:21.042Z,95811.59
2022-11-26T17:53:47.872Z,95802.84
2022-11-26T17:56:24.564Z,95808.03
2022-11-26T17:58:51.438Z,95790.06
2022-11-26T18:01:18.829Z,95830.78
2022-11-26T18:03:46.129Z,95831.13
2022-11-26T18:06:37.387Z,95827.78
2022-11-26T18:09:04.296Z,95816.91
2022-11-26T18:12:00.990Z,95819.25
2022-11-26T18:14:29.642Z,95813.72
2022-11-26T18:16:56.474Z,95814.31
2022-11-26T18:19:23.772Z,95810.03
2022-11-26T18:21:51.735Z,95817.06
2022-11-26T18:24:18.752Z,95820.41
2022-11-26T18:26:45.696Z,95824.84
2022-11-26T18:29:12.830Z,95822.31
2022-11-26T18:31:40.194Z,95819.84
2022-11-26T18:34:08.068Z,95825.00
2022-11-26T18:36:35.039Z,95835.19
2022-11-26T18:39:04.707Z,95820.47
2022-11-26T18:41:31.760Z,95822.16
2022-11-26T18:43:58.633Z,95810.41
2022-11-26T18:46:25.425Z,95825.50
2022-11-26T18:48:52.337Z,95821.66
2022-11-26T18:51:19.348Z,95832.66
2022-11-26T18:53:46.105Z,95829.25
2022-11-26T18:56:16.738Z,95825.91
2022-11-26T18:58:44.072Z,95820.34
2022-11-26T19:01:23.583Z,95846.88
2022-11-26T19:03:50.937Z,95819.84
2022-11-26T19:06:21.869Z,95824.28
2022-11-26T19:08:49.582Z,95819.69
2022-11-26T19:11:24.009Z,95814.59
2022-11-26T19:13:51.704Z,95806.22
2022-11-26T19:16:19.839Z,95811.41
2022-11-26T19:18:47.542Z,95806.41
2022-11-26T19:21:33.563Z,95814.81
2022-11-26T19:24:03.961Z,95805.38
2022-11-26T19:26:31.028Z,95796.00
2022-11-26T19:29:02.940Z,95821.56
2022-11-26T19:31:30.684Z,95806.34
2022-11-26T19:34:01.098Z,95803.97
2022-11-26T19:36:29.854Z,95807.97
2022-11-26T19:38:58.478Z,95799.13
2022-11-26T19:41:26.746Z,95820.28
2022-11-26T19:43:54.278Z,95807.50
2022-11-26T19:46:24.030Z,95795.88
2022-11-26T19:48:52.876Z,95791.84
2022-11-26T19:51:22.028Z,95813.44
2022-11-26T19:53:51.311Z,95813.53
2022-11-26T19:56:25.501Z,95815.28
2022-11-26T19:58:58.666Z,95805.94
2022-11-26T20:01:30.784Z,95816.88
2022-11-26T20:04:04.399Z,95798.69
2022-11-26T20:06:34.234Z,95811.25
2022-11-26T20:09:01.382Z,95818.00
2022-11-26T20:11:48.005Z,95813.75
